Time;durP1;ratioP1;P1;durP2;ratioP2;P2;SDS_P1;SDS_P2;PMS_P1;PMS_P2;Temp;Humidity;BMP_temperature;BMP_pressure;BME280_temperature;BME280_humidity;BME280_pressure;Samples;Min_cycle;Max_cycle;Signal;HPM_P1;HPM_P2
2022/09/12 00:07:42;;;;;;;10.20;6.40;;;;;;;11.32;84.53;98417.80;432654;1270;112417;-40
2022/09/12 00:17:49;;;;;;;9.20;6.70;;;;;;;11.24;84.52;98416.66;432395;1270;108073;-42
2022/09/12 00:27:57;;;;;;;9.80;5.90;;;;;;;11.19;84.64;98417.48;432119;1270;99289;-41
2022/09/12 00:38:04;;;;;;;10.10;6.60;;;;;;;11.14;84.59;98416.34;432565;1270;108768;-39
2022/09/12 00:48:15;;;;;;;10.90;6.30;;;;;;;11.06;84.64;98413.55;432359;1270;99329;-41
2022/09/12 00:58:26;;;;;;;10.80;6.30;;;;;;;10.96;84.63;98416.40;432472;1270;112716;-40
2022/09/12 01:18:53;;;;;;;7.90;6.20;;;;;;;10.79;84.71;98418.55;432681;1270;99234;-40
2022/09/12 01:29:08;;;;;;;11.30;8.10;;;;;;;10.61;84.71;98418.59;432840;1260;108785;-41
2022/09/12 01:39:21;;;;;;;12.20;8.80;;;;;;;10.41;84.61;98417.40;432580;1270;98275;-40
2022/09/12 01:59:41;;;;;;;16.60;10.10;;;;;;;10.21;84.59;98424.70;432451;1271;108704;-41
2022/09/12 02:09:53;;;;;;;15.10;8.80;;;;;;;10.17;84.71;98425.04;432214;1271;98046;-40
2022/09/12 02:20:01;;;;;;;8.50;6.90;;;;;;;10.13;84.77;98427.49;432271;1270;107843;-39
2022/09/12 02:30:13;;;;;;;11.40;6.70;;;;;;;10.05;84.83;98430.45;432505;1271;99327;-39
2022/09/12 02:40:17;;;;;;;8.20;5.90;;;;;;;9.95;84.91;98433.49;432428;1270;113368;-39
2022/09/12 03:00:37;;;;;;;7.60;5.70;;;;;;;10.19;85.20;98433.71;432412;1270;101405;-40
2022/09/12 03:10:56;;;;;;;10.10;6.40;;;;;;;10.27;85.13;98434.77;432591;1270;108853;-39
2022/09/12 03:21:06;;;;;;;12.50;6.30;;;;;;;10.16;85.14;98443.38;432554;1270;98058;-39
2022/09/12 03:31:15;;;;;;;;;;;;;;;9.99;85.20;98447.11;432733;1270;112475;-40
2022/09/12 03:41:21;;;;;;;;;;;;;;;9.80;85.35;98451.38;432446;1270;108879;-40
2022/09/12 03:51:28;;;;;;;9.60;6.50;;;;;;;9.66;85.44;98452.04;432559;1270;98821;-39
2022/09/12 04:11:43;;;;;;;8.80;5.50;;;;;;;9.60;85.34;98461.73;432471;1270;99238;-40
2022/09/12 04:21:50;;;;;;;8.90;5.80;;;;;;;9.67;85.57;98465.95;432511;1270;112671;-41
2022/09/12 04:31:58;;;;;;;12.30;6.30;;;;;;;9.78;85.64;98473.41;433100;1269;109119;-40
2022/09/12 04:52:10;;;;;;;9.70;5.80;;;;;;;10.04;85.66;98481.04;433796;1269;108787;-41
2022/09/12 05:02:17;;;;;;;6.90;5.70;;;;;;;10.22;85.63;98486.48;433742;1270;99914;-41
2022/09/12 05:22:31;;;;;;;10.60;6.10;;;;;;;10.88;86.06;98502.30;432663;1270;108777;-39
2022/09/12 05:42:45;;;;;;;9.50;6.20;;;;;;;12.24;85.12;98514.39;432779;1270;108956;-39
2022/09/12 05:52:53;;;;;;;11.40;5.90;;;;;;;12.07;84.86;98522.81;433860;1268;99244;-40
2022/09/12 06:03:01;;;;;;;11.90;5.80;;;;;;;12.07;84.85;98526.48;433718;1269;112644;-40
2022/09/12 06:13:08;;;;;;;14.50;6.60;;;;;;;12.45;84.99;98515.14;432141;1269;1709087;-40
2022/09/12 06:23:15;;;;;;;11.80;5.00;;;;;;;12.77;84.94;98514.58;433583;1271;98811;-40
2022/09/12 06:33:22;;;;;;;7.90;4.80;;;;;;;13.17;84.49;98522.03;433513;1270;112469;-40
2022/09/12 06:43:30;;;;;;;5.60;4.10;;;;;;;13.60;84.30;98524.65;433500;1270;109104;-41
2022/09/12 06:53:37;;;;;;;6.30;4.70;;;;;;;14.06;83.79;98524.89;433735;1270;97973;-40
2022/09/12 07:03:49;;;;;;;7.50;3.80;;;;;;;14.55;83.53;98525.83;433429;1270;108918;-42
2022/09/12 07:13:57;;;;;;;4.40;2.80;;;;;;;14.78;82.85;98528.71;433652;1270;98067;-41
2022/09/12 07:24:04;;;;;;;6.70;3.00;;;;;;;15.31;81.50;98528.60;433453;1269;112551;-41
2022/09/12 07:34:12;;;;;;;3.60;2.70;;;;;;;15.38;80.73;98537.56;433348;1270;108976;-42
2022/09/12 07:54:26;;;;;;;4.80;2.60;;;;;;;15.54;78.66;98546.05;433661;1269;109063;-42
2022/09/12 08:04:35;;;;;;;2.70;2.30;;;;;;;15.63;77.85;98548.72;433174;1269;99272;-42
2022/09/12 08:14:41;;;;;;;;;;;;;;;16.08;76.95;98557.25;433033;1270;112413;-41
2022/09/12 08:24:48;;;;;;;4.30;2.50;;;;;;;15.58;75.22;98566.67;433537;1268;108637;-42
2022/09/12 08:34:55;;;;;;;2.40;2.00;;;;;;;15.91;75.09;98564.06;433550;1269;98837;-41
2022/09/12 08:55:29;;;;;;;3.50;2.40;;;;;;;15.96;73.45;98565.20;432301;1270;99203;-40
2022/09/12 09:05:46;;;;;;;3.80;1.90;;;;;;;16.13;73.14;98565.52;433652;1271;112548;-38
2022/09/12 09:16:00;;;;;;;3.80;2.10;;;;;;;16.71;72.29;98556.86;433834;1269;108940;-40
2022/09/12 09:36:18;;;;;;;5.10;2.50;;;;;;;16.92;71.34;98552.80;433414;1271;108754;-41
2022/09/12 09:46:25;;;;;;;3.70;2.40;;;;;;;17.24;69.50;98558.19;433788;1270;98033;-40
2022/09/12 09:56:33;;;;;;;3.40;2.10;;;;;;;17.53;67.67;98557.19;433381;1271;112381;-41
2022/09/12 10:06:41;;;;;;;3.10;2.40;;;;;;;17.52;67.47;98561.46;433458;1269;108740;-41
2022/09/12 10:16:53;;;;;;;3.90;2.30;;;;;;;17.34;65.90;98566.33;433403;1271;99140;-40
2022/09/12 10:27:07;;;;;;;3.40;2.60;;;;;;;17.36;66.09;98567.11;433803;1269;108831;-41
2022/09/12 10:37:18;;;;;;;2.40;2.10;;;;;;;17.90;64.41;98560.61;433279;1269;99367;-41
2022/09/12 10:47:31;;;;;;;3.50;1.90;;;;;;;17.84;64.21;98561.35;433258;1269;112448;-41
2022/09/12 10:57:50;;;;;;;4.20;2.20;;;;;;;17.57;63.77;98563.90;433502;1270;106486;-42
2022/09/12 11:08:01;;;;;;;;;;;;;;;17.44;63.71;98569.89;433565;1270;98034;-39
2022/09/12 11:18:15;;;;;;;5.10;2.30;;;;;;;17.61;63.40;98562.39;433919;1269;112336;-39
2022/09/12 11:28:24;;;;;;;4.10;2.50;;;;;;;17.89;61.74;98565.74;433836;1271;109982;-41
2022/09/12 11:38:50;;;;;;;1.90;1.70;;;;;;;17.72;61.97;98564.41;433614;1270;98843;-43
2022/09/12 11:48:59;;;;;;;2.80;2.20;;;;;;;17.43;60.57;98562.16;433713;1269;109014;-41
2022/09/12 11:59:17;;;;;;;2.20;2.00;;;;;;;17.62;60.78;98564.67;433530;1269;98088;-40
2022/09/12 12:09:24;;;;;;;2.70;2.10;;;;;;;17.18;60.02;98572.80;433897;1271;112351;-40
2022/09/12 12:39:59;;;;;;;2.70;2.40;;;;;;;17.26;61.24;98573.09;433196;1269;109246;-39
2022/09/12 13:00:37;;;;;;;4.10;3.00;;;;;;;17.60;61.22;98565.49;433307;1270;113031;-40
2022/09/12 13:10:49;;;;;;;4.50;3.30;;;;;;;17.63;61.50;98564.30;433608;1271;108633;-40
2022/09/12 13:31:07;;;;;;;3.00;2.00;;;;;;;18.25;61.22;98547.69;433329;1271;108718;-40
2022/09/12 13:41:30;;;;;;;2.40;2.10;;;;;;;18.35;60.60;98533.90;433449;1270;99241;-40
2022/09/12 13:51:38;;;;;;;6.60;3.00;;;;;;;18.29;60.49;98535.35;433544;1268;112730;-40
2022/09/12 14:01:47;;;;;;;2.60;2.20;;;;;;;18.11;59.81;98535.14;433620;1270;108677;-40
2022/09/12 14:11:54;;;;;;;3.90;2.30;;;;;;;17.92;59.72;98536.20;433419;1271;98882;-43
2022/09/12 14:22:01;;;;;;;3.40;2.30;;;;;;;17.94;59.67;98538.21;433328;1269;106732;-42
2022/09/12 14:42:33;;;;;;;4.60;2.40;;;;;;;17.72;59.69;98530.93;433520;1271;112473;-42
2022/09/12 14:52:40;;;;;;;4.60;2.00;;;;;;;17.47;60.37;98529.89;433553;1269;107142;-41
2022/09/12 15:02:46;;;;;;;4.60;2.70;;;;;;;17.33;60.72;98523.20;433671;1269;97966;-42
2022/09/12 15:13:04;;;;;;;3.40;2.80;;;;;;;17.30;61.16;98520.80;433514;1270;107810;-41
2022/09/12 15:23:15;;;;;;;5.80;3.70;;;;;;;17.01;61.28;98520.41;433574;1270;99333;-42
2022/09/12 15:33:24;;;;;;;6.70;2.80;;;;;;;16.59;61.75;98529.50;433797;1271;111352;-40
2022/09/12 15:43:31;;;;;;;4.70;2.60;;;;;;;16.40;62.47;98534.08;433527;1270;108103;-41
2022/09/12 15:53:39;;;;;;;8.00;2.10;;;;;;;16.27;62.59;98540.00;433343;1271;99236;-42
2022/09/12 16:03:47;;;;;;;4.20;2.30;;;;;;;16.34;63.03;98545.23;433582;1269;108791;-40
2022/09/12 16:24:02;;;;;;;7.90;2.90;;;;;;;16.48;63.32;98541.05;432801;1269;112741;-43
2022/09/12 16:34:10;;;;;;;6.40;3.30;;;;;;;16.38;63.42;98542.66;433445;1269;108280;-41
2022/09/12 16:44:17;;;;;;;5.30;3.90;;;;;;;16.22;63.74;98545.40;433383;1270;98877;-40
2022/09/12 16:54:23;;;;;;;8.10;5.20;;;;;;;16.09;64.42;98553.41;433534;1271;107805;-42
2022/09/12 17:04:30;;;;;;;9.00;4.70;;;;;;;15.82;65.15;98546.84;433486;1271;99257;-42
2022/09/12 17:14:38;;;;;;;11.30;5.80;;;;;;;15.51;65.96;98549.81;433724;1269;112600;-42
2022/09/12 17:24:45;;;;;;;9.80;6.00;;;;;;;15.15;66.62;98550.55;433635;1270;108782;-42
2022/09/12 17:34:53;;;;;;;16.00;7.90;;;;;;;14.88;67.25;98560.98;433343;1269;98019;-42
2022/09/12 17:45:00;;;;;;;14.40;7.60;;;;;;;14.48;67.96;98567.38;433716;1269;108795;-42
2022/09/12 17:55:08;;;;;;;18.50;8.30;;;;;;;14.11;68.59;98575.50;433683;1270;99227;-42
2022/09/12 18:05:15;;;;;;;14.30;7.40;;;;;;;13.88;69.06;98578.43;433502;1270;112483;-42
2022/09/12 18:15:23;;;;;;;11.40;5.70;;;;;;;13.70;69.48;98578.27;431844;1269;1671374;-40
2022/09/12 18:25:30;;;;;;;14.90;8.80;;;;;;;13.45;69.85;98574.92;434008;1270;99238;-40
2022/09/12 18:45:45;;;;;;;17.00;7.60;;;;;;;12.64;70.88;98592.88;433284;1269;98927;-42
2022/09/12 18:55:52;;;;;;;13.90;7.60;;;;;;;12.42;71.36;98594.94;433023;1269;112313;-42
2022/09/12 19:06:00;;;;;;;12.80;7.60;;;;;;;12.26;71.83;98592.46;433727;1269;108811;-41
2022/09/12 19:16:10;;;;;;;13.30;6.50;;;;;;;12.18;72.16;98591.48;433511;1271;99241;-40
2022/09/12 19:26:20;;;;;;;10.40;7.00;;;;;;;12.01;72.44;98582.89;433547;1269;108687;-40
2022/09/12 19:36:27;;;;;;;10.70;8.40;;;;;;;11.89;72.86;98578.35;433543;1269;98362;-40
2022/09/12 19:46:53;;;;;;;20.80;9.10;;;;;;;11.65;73.29;98576.71;433662;1269;112911;-40
2022/09/12 19:57:01;;;;;;;10.80;7.40;;;;;;;11.54;73.52;98581.48;433781;1271;107952;-40
2022/09/12 20:07:08;;;;;;;17.30;9.40;;;;;;;11.45;73.82;98577.10;433362;1268;99245;-41
2022/09/12 20:17:16;;;;;;;12.90;8.90;;;;;;;11.45;74.31;98570.47;433393;1269;108909;-41
2022/09/12 20:27:23;;;;;;;17.30;9.40;;;;;;;11.51;74.52;98560.83;433234;1270;99920;-41
2022/09/12 20:37:30;;;;;;;12.40;9.30;;;;;;;11.52;74.79;98561.45;433355;1270;111638;-41
2022/09/12 20:47:38;;;;;;;14.50;8.90;;;;;;;11.51;75.24;98559.77;433390;1269;108838;-41
2022/09/12 20:57:49;;;;;;;12.40;8.00;;;;;;;11.58;75.55;98548.42;433455;1268;97943;-41
2022/09/12 21:07:56;;;;;;;10.50;7.70;;;;;;;11.61;75.68;98542.66;433500;1269;108773;-40
2022/09/12 21:18:03;;;;;;;13.20;8.10;;;;;;;11.67;75.98;98544.45;433702;1269;98810;-40
2022/09/12 21:28:11;;;;;;;8.20;7.30;;;;;;;11.57;76.18;98550.67;433781;1269;112429;-41
2022/09/12 21:38:19;;;;;;;10.20;6.80;;;;;;;11.46;76.13;98544.86;433280;1270;108963;-40
2022/09/12 21:48:27;;;;;;;11.20;6.80;;;;;;;11.43;76.34;98534.58;433486;1270;98910;-39
2022/09/12 21:58:34;;;;;;;11.70;7.10;;;;;;;11.46;76.57;98523.52;433214;1269;109461;-41
2022/09/12 22:08:42;;;;;;;8.30;6.40;;;;;;;11.40;76.73;98516.80;432269;1269;99238;-41
2022/09/12 22:28:57;;;;;;;16.20;8.60;;;;;;;11.25;77.06;98521.98;433436;1270;109012;-42
2022/09/12 22:39:04;;;;;;;10.20;7.80;;;;;;;11.11;77.33;98516.98;433420;1270;99244;-42
2022/09/12 22:49:12;;;;;;;7.80;6.20;;;;;;;11.06;77.45;98520.55;433251;1269;108864;-41
2022/09/12 22:59:19;;;;;;;8.60;5.70;;;;;;;11.01;77.62;98516.70;433436;1269;99241;-40
2022/09/12 23:09:26;;;;;;;12.50;9.10;;;;;;;10.94;77.78;98508.58;433627;1269;112147;-40
2022/09/12 23:19:40;;;;;;;12.20;7.90;;;;;;;10.76;77.98;98502.98;433467;1269;108791;-41
2022/09/12 23:29:51;;;;;;;15.70;10.00;;;;;;;10.66;78.24;98493.67;433503;1269;99229;-41
2022/09/12 23:39:58;;;;;;;12.30;8.60;;;;;;;10.61;78.40;98490.23;433634;1269;112349;-40
2022/09/12 23:50:06;;;;;;;9.70;7.80;;;;;;;10.64;78.63;98486.50;433154;1270;108948;-41
